sensor_id;sensor_type;location;lat;lon;timestamp;pressure;altitude;pressure_sealevel;temperature;humidity
36258;BME280;22294;52.044;4.582;2023-01-09T00:01:34;75435.50;;;-144.37;100.00
36258;BME280;22294;52.044;4.582;2023-01-09T00:04:00;75435.50;;;-144.37;100.00
36258;BME280;22294;52.044;4.582;2023-01-09T00:06:26;75439.59;;;-144.37;100.00
36258;BME280;22294;52.044;4.582;2023-01-09T00:08:52;75453.91;;;-144.37;100.00
36258;BME280;22294;52.044;4.582;2023-01-09T00:11:17;75451.84;;;-144.37;100.00
36258;BME280;22294;52.044;4.582;2023-01-09T00:13:43;75449.81;;;-144.37;100.00
36258;BME280;22294;52.044;4.582;2023-01-09T00:16:08;75449.81;;;-144.37;100.00
36258;BME280;22294;52.044;4.582;2023-01-09T00:18:35;75451.84;;;-144.37;100.00
36258;BME280;22294;52.044;4.582;2023-01-09T00:21:05;75455.94;;;-144.37;100.00
36258;BME280;22294;52.044;4.582;2023-01-09T00:23:31;75457.97;;;-144.37;100.00
36258;BME280;22294;52.044;4.582;2023-01-09T00:26:15;75451.84;;;-144.37;100.00
36258;BME280;22294;52.044;4.582;2023-01-09T00:28:42;75455.94;;;-144.37;100.00
36258;BME280;22294;52.044;4.582;2023-01-09T00:31:09;75457.97;;;-144.37;100.00
36258;BME280;22294;52.044;4.582;2023-01-09T00:33:38;75470.25;;;-144.37;100.00
36258;BME280;22294;52.044;4.582;2023-01-09T00:36:05;75468.22;;;-144.37;100.00
36258;BME280;22294;52.044;4.582;2023-01-09T00:38:31;75474.34;;;-144.37;100.00
36258;BME280;22294;52.044;4.582;2023-01-09T00:40:57;75468.22;;;-144.37;100.00
36258;BME280;22294;52.044;4.582;2023-01-09T00:43:27;75457.97;;;-144.37;100.00
36258;BME280;22294;52.044;4.582;2023-01-09T00:45:54;75470.25;;;-144.37;100.00
36258;BME280;22294;52.044;4.582;2023-01-09T00:48:22;75476.38;;;-144.37;100.00
36258;BME280;22294;52.044;4.582;2023-01-09T00:50:52;75474.34;;;-144.37;100.00
36258;BME280;22294;52.044;4.582;2023-01-09T00:53:20;75484.56;;;-144.37;100.00
36258;BME280;22294;52.044;4.582;2023-01-09T00:55:47;75468.22;;;-144.37;100.00
36258;BME280;22294;52.044;4.582;2023-01-09T00:58:13;75484.56;;;-144.37;100.00
36258;BME280;22294;52.044;4.582;2023-01-09T01:00:39;75478.44;;;-144.37;100.00
36258;BME280;22294;52.044;4.582;2023-01-09T01:03:04;75490.69;;;-144.37;100.00
36258;BME280;22294;52.044;4.582;2023-01-09T01:05:30;75482.53;;;-144.37;100.00
36258;BME280;22294;52.044;4.582;2023-01-09T01:08:16;75484.56;;;-144.37;100.00
36258;BME280;22294;52.044;4.582;2023-01-09T01:10:42;75476.38;;;-144.37;100.00
36258;BME280;22294;52.044;4.582;2023-01-09T01:13:08;75486.63;;;-144.37;100.00
36258;BME280;22294;52.044;4.582;2023-01-09T01:15:34;75490.69;;;-144.37;100.00
36258;BME280;22294;52.044;4.582;2023-01-09T01:17:59;75490.69;;;-144.37;100.00
36258;BME280;22294;52.044;4.582;2023-01-09T01:20:25;75478.44;;;-144.37;100.00
36258;BME280;22294;52.044;4.582;2023-01-09T01:22:50;75492.75;;;-144.37;100.00
36258;BME280;22294;52.044;4.582;2023-01-09T01:25:16;75484.56;;;-144.37;100.00
36258;BME280;22294;52.044;4.582;2023-01-09T01:27:42;75500.94;;;-144.37;100.00
36258;BME280;22294;52.044;4.582;2023-01-09T01:30:09;75498.88;;;-144.37;100.00
36258;BME280;22294;52.044;4.582;2023-01-09T01:32:36;75494.78;;;-144.37;100.00
36258;BME280;22294;52.044;4.582;2023-01-09T01:35:02;75494.78;;;-144.37;100.00
36258;BME280;22294;52.044;4.582;2023-01-09T01:37:28;75494.78;;;-144.37;100.00
36258;BME280;22294;52.044;4.582;2023-01-09T01:39:53;75494.78;;;-144.37;100.00
36258;BME280;22294;52.044;4.582;2023-01-09T01:42:19;75476.38;;;-144.37;100.00
36258;BME280;22294;52.044;4.582;2023-01-09T01:44:59;75462.06;;;-144.37;100.00
36258;BME280;22294;52.044;4.582;2023-01-09T01:47:36;75468.22;;;-144.37;100.00
36258;BME280;22294;52.044;4.582;2023-01-09T01:50:09;75472.28;;;-144.37;100.00
36258;BME280;22294;52.044;4.582;2023-01-09T01:52:36;75492.75;;;-144.37;100.00
36258;BME280;22294;52.044;4.582;2023-01-09T01:55:04;75486.63;;;-144.37;100.00
36258;BME280;22294;52.044;4.582;2023-01-09T01:57:31;75496.84;;;-144.37;100.00
36258;BME280;22294;52.044;4.582;2023-01-09T01:59:58;75502.97;;;-144.37;100.00
36258;BME280;22294;52.044;4.582;2023-01-09T02:02:29;75494.78;;;-144.37;100.00
36258;BME280;22294;52.044;4.582;2023-01-09T02:04:56;75490.69;;;-144.37;100.00
36258;BME280;22294;52.044;4.582;2023-01-09T02:07:23;75496.84;;;-144.37;100.00
36258;BME280;22294;52.044;4.582;2023-01-09T02:09:48;75500.94;;;-144.37;100.00
36258;BME280;22294;52.044;4.582;2023-01-09T02:12:17;75507.06;;;-144.37;100.00
36258;BME280;22294;52.044;4.582;2023-01-09T02:14:45;75513.19;;;-144.37;100.00
36258;BME280;22294;52.044;4.582;2023-01-09T02:20:38;75511.16;;;-144.37;100.00
36258;BME280;22294;52.044;4.582;2023-01-09T02:26:18;75492.75;;;-144.37;100.00
36258;BME280;22294;52.044;4.582;2023-01-09T02:39:34;75511.16;;;-144.37;100.00
36258;BME280;22294;52.044;4.582;2023-01-09T02:42:08;75519.31;;;-144.37;100.00
36258;BME280;22294;52.044;4.582;2023-01-09T02:44:36;75511.16;;;-144.37;100.00
36258;BME280;22294;52.044;4.582;2023-01-09T02:47:32;75507.06;;;-144.37;100.00
36258;BME280;22294;52.044;4.582;2023-01-09T02:49:58;75502.97;;;-144.37;100.00
36258;BME280;22294;52.044;4.582;2023-01-09T03:06:17;75535.69;;;-144.37;100.00
36258;BME280;22294;52.044;4.582;2023-01-09T03:08:47;75513.19;;;-144.37;100.00
36258;BME280;22294;52.044;4.582;2023-01-09T03:11:15;75515.25;;;-144.37;100.00
36258;BME280;22294;52.044;4.582;2023-01-09T03:13:46;75513.19;;;-144.37;100.00
36258;BME280;22294;52.044;4.582;2023-01-09T03:16:24;75511.16;;;-144.37;100.00
36258;BME280;22294;52.044;4.582;2023-01-09T03:18:52;75507.06;;;-144.37;100.00
36258;BME280;22294;52.044;4.582;2023-01-09T03:21:19;75507.06;;;-144.37;100.00
36258;BME280;22294;52.044;4.582;2023-01-09T03:23:46;75507.06;;;-144.37;100.00
36258;BME280;22294;52.044;4.582;2023-01-09T03:26:12;75521.38;;;-144.37;100.00
36258;BME280;22294;52.044;4.582;2023-01-09T03:28:38;75507.06;;;-144.37;100.00
36258;BME280;22294;52.044;4.582;2023-01-09T03:31:03;75502.97;;;-144.37;100.00
36258;BME280;22294;52.044;4.582;2023-01-09T03:33:28;75507.06;;;-144.37;100.00
36258;BME280;22294;52.044;4.582;2023-01-09T03:35:54;75505.00;;;-144.37;100.00
36258;BME280;22294;52.044;4.582;2023-01-09T03:38:19;75507.06;;;-144.37;100.00
36258;BME280;22294;52.044;4.582;2023-01-09T03:40:44;75502.97;;;-144.37;100.00
36258;BME280;22294;52.044;4.582;2023-01-09T03:43:09;75494.78;;;-144.37;100.00
36258;BME280;22294;52.044;4.582;2023-01-09T03:45:35;75498.88;;;-144.37;100.00
36258;BME280;22294;52.044;4.582;2023-01-09T03:48:00;75511.16;;;-144.37;100.00
36258;BME280;22294;52.044;4.582;2023-01-09T03:50:26;75500.94;;;-144.37;100.00
36258;BME280;22294;52.044;4.582;2023-01-09T03:52:51;75511.16;;;-144.37;100.00
36258;BME280;22294;52.044;4.582;2023-01-09T03:55:16;75523.41;;;-144.37;100.00
36258;BME280;22294;52.044;4.582;2023-01-09T03:57:42;75515.25;;;-144.37;100.00
36258;BME280;22294;52.044;4.582;2023-01-09T04:00:07;75515.25;;;-144.37;100.00
36258;BME280;22294;52.044;4.582;2023-01-09T04:02:33;75517.28;;;-144.37;100.00
36258;BME280;22294;52.044;4.582;2023-01-09T04:04:59;75523.41;;;-144.37;100.00
36258;BME280;22294;52.044;4.582;2023-01-09T04:07:24;75529.56;;;-144.37;100.00
36258;BME280;22294;52.044;4.582;2023-01-09T04:09:49;75523.41;;;-144.37;100.00
36258;BME280;22294;52.044;4.582;2023-01-09T04:12:14;75527.50;;;-144.37;100.00
36258;BME280;22294;52.044;4.582;2023-01-09T04:14:40;75505.00;;;-144.37;100.00
36258;BME280;22294;52.044;4.582;2023-01-09T04:17:05;75500.94;;;-144.37;100.00
36258;BME280;22294;52.044;4.582;2023-01-09T04:19:30;75496.84;;;-144.37;100.00
36258;BME280;22294;52.044;4.582;2023-01-09T04:21:56;75500.94;;;-144.37;100.00
36258;BME280;22294;52.044;4.582;2023-01-09T04:24:21;75484.56;;;-144.37;100.00
36258;BME280;22294;52.044;4.582;2023-01-09T04:26:46;75498.88;;;-144.37;100.00
36258;BME280;22294;52.044;4.582;2023-01-09T04:29:11;75494.78;;;-144.37;100.00
36258;BME280;22294;52.044;4.582;2023-01-09T04:31:37;75492.75;;;-144.37;100.00
36258;BME280;22294;52.044;4.582;2023-01-09T04:34:02;75484.56;;;-144.37;100.00
36258;BME280;22294;52.044;4.582;2023-01-09T04:36:27;75488.66;;;-144.37;100.00
36258;BME280;22294;52.044;4.582;2023-01-09T04:38:53;75492.75;;;-144.37;100.00
36258;BME280;22294;52.044;4.582;2023-01-09T04:41:18;75490.69;;;-144.37;100.00
36258;BME280;22294;52.044;4.582;2023-01-09T04:44:02;75496.84;;;-144.37;100.00
36258;BME280;22294;52.044;4.582;2023-01-09T04:46:27;75486.63;;;-144.37;100.00
36258;BME280;22294;52.044;4.582;2023-01-09T04:48:53;75484.56;;;-144.37;100.00
36258;BME280;22294;52.044;4.582;2023-01-09T04:51:18;75486.63;;;-144.37;100.00
36258;BME280;22294;52.044;4.582;2023-01-09T04:53:43;75480.47;;;-144.37;100.00
36258;BME280;22294;52.044;4.582;2023-01-09T04:56:08;75478.44;;;-144.37;100.00
36258;BME280;22294;52.044;4.582;2023-01-09T04:58:34;75466.16;;;-144.37;100.00
36258;BME280;22294;52.044;4.582;2023-01-09T05:00:59;75476.38;;;-144.37;100.00
36258;BME280;22294;52.044;4.582;2023-01-09T05:03:24;75478.44;;;-144.37;100.00
36258;BME280;22294;52.044;4.582;2023-01-09T05:05:50;75464.13;;;-144.37;100.00
36258;BME280;22294;52.044;4.582;2023-01-09T05:08:15;75466.16;;;-144.37;100.00
36258;BME280;22294;52.044;4.582;2023-01-09T05:10:40;75462.06;;;-144.37;100.00
36258;BME280;22294;52.044;4.582;2023-01-09T05:13:05;75457.97;;;-144.37;100.00
36258;BME280;22294;52.044;4.582;2023-01-09T05:15:31;75457.97;;;-144.37;100.00
36258;BME280;22294;52.044;4.582;2023-01-09T05:17:56;75460.03;;;-144.37;100.00
36258;BME280;22294;52.044;4.582;2023-01-09T05:20:21;75466.16;;;-144.37;100.00
36258;BME280;22294;52.044;4.582;2023-01-09T05:22:46;75460.03;;;-144.37;100.00
36258;BME280;22294;52.044;4.582;2023-01-09T05:25:12;75462.06;;;-144.37;100.00
36258;BME280;22294;52.044;4.582;2023-01-09T05:27:37;75453.91;;;-144.37;100.00
36258;BME280;22294;52.044;4.582;2023-01-09T05:30:03;75453.91;;;-144.37;100.00
36258;BME280;22294;52.044;4.582;2023-01-09T05:32:28;75453.91;;;-144.37;100.00
36258;BME280;22294;52.044;4.582;2023-01-09T05:34:53;75455.94;;;-144.37;100.00
36258;BME280;22294;52.044;4.582;2023-01-09T05:37:19;75453.91;;;-144.37;100.00
36258;BME280;22294;52.044;4.582;2023-01-09T05:39:44;75451.84;;;-144.37;100.00
36258;BME280;22294;52.044;4.582;2023-01-09T05:42:09;75449.81;;;-144.37;100.00
36258;BME280;22294;52.044;4.582;2023-01-09T05:44:35;75443.66;;;-144.37;100.00
36258;BME280;22294;52.044;4.582;2023-01-09T05:47:00;75449.81;;;-144.37;100.00
36258;BME280;22294;52.044;4.582;2023-01-09T05:49:25;75443.66;;;-144.37;100.00
36258;BME280;22294;52.044;4.582;2023-01-09T05:51:50;75443.66;;;-144.37;100.00
36258;BME280;22294;52.044;4.582;2023-01-09T05:54:16;75441.63;;;-144.37;100.00
36258;BME280;22294;52.044;4.582;2023-01-09T05:56:41;75441.63;;;-144.37;100.00
36258;BME280;22294;52.044;4.582;2023-01-09T05:59:06;75447.75;;;-144.37;100.00
36258;BME280;22294;52.044;4.582;2023-01-09T06:01:32;75462.06;;;-144.37;100.00
36258;BME280;22294;52.044;4.582;2023-01-09T06:03:57;75449.81;;;-144.37;100.00
36258;BME280;22294;52.044;4.582;2023-01-09T06:06:22;75449.81;;;-144.37;100.00
36258;BME280;22294;52.044;4.582;2023-01-09T06:08:48;75441.63;;;-144.37;100.00
36258;BME280;22294;52.044;4.582;2023-01-09T06:11:13;75441.63;;;-144.37;100.00
36258;BME280;22294;52.044;4.582;2023-01-09T06:13:39;75453.91;;;-144.37;100.00
36258;BME280;22294;52.044;4.582;2023-01-09T06:16:04;75441.63;;;-144.37;100.00
36258;BME280;22294;52.044;4.582;2023-01-09T06:18:30;75445.72;;;-144.37;100.00
36258;BME280;22294;52.044;4.582;2023-01-09T06:20:55;75449.81;;;-144.37;100.00
36258;BME280;22294;52.044;4.582;2023-01-09T06:23:21;75447.75;;;-144.37;100.00
36258;BME280;22294;52.044;4.582;2023-01-09T06:25:46;75437.53;;;-144.37;100.00
36258;BME280;22294;52.044;4.582;2023-01-09T06:28:11;75433.44;;;-144.37;100.00
36258;BME280;22294;52.044;4.582;2023-01-09T06:30:37;75441.63;;;-144.37;100.00
36258;BME280;22294;52.044;4.582;2023-01-09T06:33:02;75437.53;;;-144.37;100.00
36258;BME280;22294;52.044;4.582;2023-01-09T06:35:27;75437.53;;;-144.37;100.00
36258;BME280;22294;52.044;4.582;2023-01-09T06:37:53;75427.31;;;-144.37;100.00
36258;BME280;22294;52.044;4.582;2023-01-09T06:40:18;75427.31;;;-144.37;100.00
36258;BME280;22294;52.044;4.582;2023-01-09T06:42:46;75429.34;;;-144.37;100.00
36258;BME280;22294;52.044;4.582;2023-01-09T06:45:12;75427.31;;;-144.37;100.00
36258;BME280;22294;52.044;4.582;2023-01-09T06:47:37;75433.44;;;-144.37;100.00
36258;BME280;22294;52.044;4.582;2023-01-09T06:50:04;75427.31;;;-144.37;100.00
36258;BME280;22294;52.044;4.582;2023-01-09T06:52:29;75423.22;;;-144.37;100.00
36258;BME280;22294;52.044;4.582;2023-01-09T06:54:54;75441.63;;;-144.37;100.00
36258;BME280;22294;52.044;4.582;2023-01-09T06:57:19;75433.44;;;-144.37;100.00
36258;BME280;22294;52.044;4.582;2023-01-09T06:59:45;75433.44;;;-144.37;100.00
36258;BME280;22294;52.044;4.582;2023-01-09T07:02:18;75441.63;;;-144.37;100.00
36258;BME280;22294;52.044;4.582;2023-01-09T07:04:44;75441.63;;;-144.37;100.00
36258;BME280;22294;52.044;4.582;2023-01-09T07:07:09;75445.72;;;-144.37;100.00
36258;BME280;22294;52.044;4.582;2023-01-09T07:09:35;75441.63;;;-144.37;100.00
36258;BME280;22294;52.044;4.582;2023-01-09T07:12:00;75445.72;;;-144.37;100.00
36258;BME280;22294;52.044;4.582;2023-01-09T07:14:25;75439.59;;;-144.37;100.00
36258;BME280;22294;52.044;4.582;2023-01-09T07:16:51;75449.81;;;-144.37;100.00
36258;BME280;22294;52.044;4.582;2023-01-09T07:19:16;75451.84;;;-144.37;100.00
36258;BME280;22294;52.044;4.582;2023-01-09T07:21:41;75447.75;;;-144.37;100.00
36258;BME280;22294;52.044;4.582;2023-01-09T07:24:06;75447.75;;;-144.37;100.00
36258;BME280;22294;52.044;4.582;2023-01-09T07:26:32;75441.63;;;-144.37;100.00
36258;BME280;22294;52.044;4.582;2023-01-09T07:28:57;75453.91;;;-144.37;100.00
36258;BME280;22294;52.044;4.582;2023-01-09T07:31:22;75449.81;;;-144.37;100.00
36258;BME280;22294;52.044;4.582;2023-01-09T07:33:48;75451.84;;;-144.37;100.00
36258;BME280;22294;52.044;4.582;2023-01-09T07:36:13;75457.97;;;-144.37;100.00
36258;BME280;22294;52.044;4.582;2023-01-09T07:38:38;75462.06;;;-144.37;100.00
36258;BME280;22294;52.044;4.582;2023-01-09T07:41:04;75468.22;;;-144.37;100.00
36258;BME280;22294;52.044;4.582;2023-01-09T07:43:29;75472.28;;;-144.37;100.00
36258;BME280;22294;52.044;4.582;2023-01-09T07:45:55;75474.34;;;-144.37;100.00
36258;BME280;22294;52.044;4.582;2023-01-09T07:48:20;75480.47;;;-144.37;100.00
36258;BME280;22294;52.044;4.582;2023-01-09T07:50:45;75486.63;;;-144.37;100.00
36258;BME280;22294;52.044;4.582;2023-01-09T07:53:11;75492.75;;;-144.37;100.00
36258;BME280;22294;52.044;4.582;2023-01-09T07:55:36;75496.84;;;-144.37;100.00
36258;BME280;22294;52.044;4.582;2023-01-09T07:58:01;75494.78;;;-144.37;100.00
36258;BME280;22294;52.044;4.582;2023-01-09T08:00:27;75502.97;;;-144.37;100.00
36258;BME280;22294;52.044;4.582;2023-01-09T08:02:52;75513.19;;;-144.37;100.00
36258;BME280;22294;52.044;4.582;2023-01-09T08:05:18;75521.38;;;-144.37;100.00
36258;BME280;22294;52.044;4.582;2023-01-09T08:07:43;75527.50;;;-144.37;100.00
36258;BME280;22294;52.044;4.582;2023-01-09T08:10:09;75527.50;;;-144.37;100.00
36258;BME280;22294;52.044;4.582;2023-01-09T08:12:35;75539.78;;;-144.37;100.00
36258;BME280;22294;52.044;4.582;2023-01-09T08:15:00;75535.69;;;-144.37;100.00
36258;BME280;22294;52.044;4.582;2023-01-09T08:17:26;75531.59;;;-144.37;100.00
36258;BME280;22294;52.044;4.582;2023-01-09T08:19:51;75541.81;;;-144.37;100.00
36258;BME280;22294;52.044;4.582;2023-01-09T08:22:16;75537.72;;;-144.37;100.00
36258;BME280;22294;52.044;4.582;2023-01-09T08:24:41;75539.78;;;-144.37;100.00
36258;BME280;22294;52.044;4.582;2023-01-09T08:27:07;75533.63;;;-144.37;100.00
36258;BME280;22294;52.044;4.582;2023-01-09T08:29:32;75537.72;;;-144.37;100.00
36258;BME280;22294;52.044;4.582;2023-01-09T08:31:57;75539.78;;;-144.37;100.00
36258;BME280;22294;52.044;4.582;2023-01-09T08:34:23;75543.88;;;-144.37;100.00
36258;BME280;22294;52.044;4.582;2023-01-09T08:36:48;75547.97;;;-144.37;100.00
36258;BME280;22294;52.044;4.582;2023-01-09T08:39:13;75547.97;;;-144.37;100.00
36258;BME280;22294;52.044;4.582;2023-01-09T08:41:39;75554.09;;;-144.37;100.00
36258;BME280;22294;52.044;4.582;2023-01-09T08:44:22;75543.88;;;-144.37;100.00
36258;BME280;22294;52.044;4.582;2023-01-09T08:47:07;75547.97;;;-144.37;100.00
36258;BME280;22294;52.044;4.582;2023-01-09T08:49:34;75554.09;;;-144.37;100.00
36258;BME280;22294;52.044;4.582;2023-01-09T08:52:00;75554.09;;;-144.37;100.00
36258;BME280;22294;52.044;4.582;2023-01-09T08:54:25;75556.13;;;-144.37;100.00
36258;BME280;22294;52.044;4.582;2023-01-09T08:56:51;75554.09;;;-144.37;100.00
36258;BME280;22294;52.044;4.582;2023-01-09T08:59:16;75556.13;;;-144.37;100.00
36258;BME280;22294;52.044;4.582;2023-01-09T09:01:41;75558.19;;;-144.37;100.00
36258;BME280;22294;52.044;4.582;2023-01-09T09:04:07;75562.28;;;-144.37;100.00
36258;BME280;22294;52.044;4.582;2023-01-09T09:06:33;75566.34;;;-144.37;100.00
36258;BME280;22294;52.044;4.582;2023-01-09T09:08:58;75558.19;;;-144.37;100.00
36258;BME280;22294;52.044;4.582;2023-01-09T09:11:28;75568.41;;;-144.37;100.00
36258;BME280;22294;52.044;4.582;2023-01-09T09:13:54;75576.59;;;-144.37;100.00
36258;BME280;22294;52.044;4.582;2023-01-09T09:16:20;75574.53;;;-144.37;100.00
36258;BME280;22294;52.044;4.582;2023-01-09T09:18:45;75574.53;;;-144.37;100.00
36258;BME280;22294;52.044;4.582;2023-01-09T09:21:10;75574.53;;;-144.37;100.00
36258;BME280;22294;52.044;4.582;2023-01-09T09:23:35;75572.50;;;-144.37;100.00
36258;BME280;22294;52.044;4.582;2023-01-09T09:26:01;75578.63;;;-144.37;100.00
36258;BME280;22294;52.044;4.582;2023-01-09T09:28:26;75580.69;;;-144.37;100.00
36258;BME280;22294;52.044;4.582;2023-01-09T09:30:51;75584.75;;;-144.37;100.00
36258;BME280;22294;52.044;4.582;2023-01-09T09:33:17;75576.59;;;-144.37;100.00
36258;BME280;22294;52.044;4.582;2023-01-09T09:35:42;75580.69;;;-144.37;100.00
36258;BME280;22294;52.044;4.582;2023-01-09T09:38:09;75584.75;;;-144.37;100.00
36258;BME280;22294;52.044;4.582;2023-01-09T09:40:55;75588.84;;;-144.37;100.00
36258;BME280;22294;52.044;4.582;2023-01-09T09:49:27;75625.66;;;-144.37;100.00
36258;BME280;22294;52.044;4.582;2023-01-09T09:52:04;75637.94;;;-144.37;100.00
36258;BME280;22294;52.044;4.582;2023-01-09T09:54:46;75646.09;;;-144.37;100.00
36258;BME280;22294;52.044;4.582;2023-01-09T09:57:27;75658.38;;;-144.37;100.00
36258;BME280;22294;52.044;4.582;2023-01-09T09:59:57;75656.34;;;-144.37;100.00
36258;BME280;22294;52.044;4.582;2023-01-09T10:02:28;75668.59;;;-144.37;100.00
36258;BME280;22294;52.044;4.582;2023-01-09T10:05:18;75656.34;;;-144.37;100.00
36258;BME280;22294;52.044;4.582;2023-01-09T10:07:47;75666.56;;;-144.37;100.00
36258;BME280;22294;52.044;4.582;2023-01-09T10:10:30;75662.47;;;-144.37;100.00
36258;BME280;22294;52.044;4.582;2023-01-09T10:12:58;75664.50;;;-144.37;100.00
36258;BME280;22294;52.044;4.582;2023-01-09T10:15:37;75664.50;;;-144.37;100.00
36258;BME280;22294;52.044;4.582;2023-01-09T10:18:16;75664.50;;;-144.37;100.00
36258;BME280;22294;52.044;4.582;2023-01-09T10:20:54;75656.34;;;-144.37;100.00
36258;BME280;22294;52.044;4.582;2023-01-09T10:23:39;75658.38;;;-144.37;100.00
36258;BME280;22294;52.044;4.582;2023-01-09T10:29:12;75672.69;;;-144.37;100.00
36258;BME280;22294;52.044;4.582;2023-01-09T10:32:18;75676.78;;;-144.37;100.00
36258;BME280;22294;52.044;4.582;2023-01-09T10:37:49;75684.97;;;-144.37;100.00
36258;BME280;22294;52.044;4.582;2023-01-09T10:40:38;75684.97;;;-144.37;100.00
36258;BME280;22294;52.044;4.582;2023-01-09T10:43:29;75693.16;;;-144.37;100.00
36258;BME280;22294;52.044;4.582;2023-01-09T10:46:00;75680.88;;;-144.37;100.00
36258;BME280;22294;52.044;4.582;2023-01-09T10:48:39;75666.56;;;-144.37;100.00
36258;BME280;22294;52.044;4.582;2023-01-09T10:51:19;75662.47;;;-144.37;100.00
36258;BME280;22294;52.044;4.582;2023-01-09T10:53:47;75656.34;;;-144.37;100.00
36258;BME280;22294;52.044;4.582;2023-01-09T10:56:22;75646.09;;;-144.37;100.00
36258;BME280;22294;52.044;4.582;2023-01-09T10:58:48;75650.19;;;-144.37;100.00
36258;BME280;22294;52.044;4.582;2023-01-09T11:01:24;75660.44;;;-144.37;100.00
36258;BME280;22294;52.044;4.582;2023-01-09T11:03:50;75660.44;;;-144.37;100.00
36258;BME280;22294;52.044;4.582;2023-01-09T11:06:36;75656.34;;;-144.37;100.00
36258;BME280;22294;52.044;4.582;2023-01-09T11:09:04;75658.38;;;-144.37;100.00
36258;BME280;22294;52.044;4.582;2023-01-09T11:11:35;75662.47;;;-144.37;100.00
36258;BME280;22294;52.044;4.582;2023-01-09T11:14:26;75660.44;;;-144.37;100.00
36258;BME280;22294;52.044;4.582;2023-01-09T11:16:54;75664.50;;;-144.37;100.00
36258;BME280;22294;52.044;4.582;2023-01-09T11:19:20;75658.38;;;-144.37;100.00
36258;BME280;22294;52.044;4.582;2023-01-09T11:21:46;75666.56;;;-144.37;100.00
36258;BME280;22294;52.044;4.582;2023-01-09T11:24:23;75660.44;;;-144.37;100.00
36258;BME280;22294;52.044;4.582;2023-01-09T11:26:53;75658.38;;;-144.37;100.00
36258;BME280;22294;52.044;4.582;2023-01-09T11:29:21;75662.47;;;-144.37;100.00
36258;BME280;22294;52.044;4.582;2023-01-09T11:31:56;75662.47;;;-144.37;100.00
36258;BME280;22294;52.044;4.582;2023-01-09T11:34:33;75662.47;;;-144.37;100.00
36258;BME280;22294;52.044;4.582;2023-01-09T11:37:05;75666.56;;;-144.37;100.00
36258;BME280;22294;52.044;4.582;2023-01-09T11:39:32;75670.66;;;-144.37;100.00
36258;BME280;22294;52.044;4.582;2023-01-09T11:42:01;75658.38;;;-144.37;100.00
36258;BME280;22294;52.044;4.582;2023-01-09T11:44:27;75650.19;;;-144.37;100.00
36258;BME280;22294;52.044;4.582;2023-01-09T11:46:54;75652.25;;;-144.37;100.00
36258;BME280;22294;52.044;4.582;2023-01-09T11:49:25;75646.09;;;-144.37;100.00
36258;BME280;22294;52.044;4.582;2023-01-09T11:52:14;75652.25;;;-144.37;100.00
36258;BME280;22294;52.044;4.582;2023-01-09T11:54:48;75652.25;;;-144.37;100.00
36258;BME280;22294;52.044;4.582;2023-01-09T11:57:16;75656.34;;;-144.37;100.00
36258;BME280;22294;52.044;4.582;2023-01-09T11:59:42;75660.44;;;-144.37;100.00
36258;BME280;22294;52.044;4.582;2023-01-09T12:04:59;75666.56;;;-144.37;100.00
36258;BME280;22294;52.044;4.582;2023-01-09T12:07:44;75664.50;;;-144.37;100.00
36258;BME280;22294;52.044;4.582;2023-01-09T12:10:53;75666.56;;;-144.37;100.00
36258;BME280;22294;52.044;4.582;2023-01-09T12:26:25;75615.44;;;-144.37;99.28
36258;BME280;22294;52.044;4.582;2023-01-09T12:37:17;75650.19;;;-144.37;98.29
36258;BME280;22294;52.044;4.582;2023-01-09T12:45:43;75656.34;;;-144.37;97.96
36258;BME280;22294;52.044;4.582;2023-01-09T12:51:02;75668.59;;;-144.37;96.68
36258;BME280;22294;52.044;4.582;2023-01-09T12:53:32;75670.66;;;-144.37;97.55
36258;BME280;22294;52.044;4.582;2023-01-09T12:59:25;75670.66;;;-144.37;96.27
36258;BME280;22294;52.044;4.582;2023-01-09T13:02:12;75682.91;;;-144.37;95.72
36258;BME280;22294;52.044;4.582;2023-01-09T13:04:47;75695.19;;;-144.37;95.24
36258;BME280;22294;52.044;4.582;2023-01-09T13:07:19;75687.00;;;-144.37;96.11
36258;BME280;22294;52.044;4.582;2023-01-09T13:10:32;75682.91;;;-144.37;96.56
36258;BME280;22294;52.044;4.582;2023-01-09T13:12:38;75684.97;;;-144.37;96.43
36258;BME280;22294;52.044;4.582;2023-01-09T13:15:27;75678.81;;;-144.37;95.08
36258;BME280;22294;52.044;4.582;2023-01-09T13:18:26;75693.16;;;-144.37;94.06
36258;BME280;22294;52.044;4.582;2023-01-09T13:20:54;75703.38;;;-144.37;93.30
36258;BME280;22294;52.044;4.582;2023-01-09T13:23:29;75711.53;;;-144.37;93.70
36258;BME280;22294;52.044;4.582;2023-01-09T13:25:59;75717.69;;;-144.37;93.86
36258;BME280;22294;52.044;4.582;2023-01-09T13:28:31;75725.88;;;-144.37;94.58
36258;BME280;22294;52.044;4.582;2023-01-09T13:33:45;75740.19;;;-144.37;94.99
36258;BME280;22294;52.044;4.582;2023-01-09T13:36:44;75740.19;;;-144.37;94.37
36258;BME280;22294;52.044;4.582;2023-01-09T13:39:19;75736.09;;;-144.37;93.28
36258;BME280;22294;52.044;4.582;2023-01-09T13:42:00;75738.13;;;-144.37;93.95
36258;BME280;22294;52.044;4.582;2023-01-09T13:44:46;75748.34;;;-144.37;93.29
36258;BME280;22294;52.044;4.582;2023-01-09T13:57:33;75781.06;;;-144.37;93.23
36258;BME280;22294;52.044;4.582;2023-01-09T14:07:36;75770.84;;;-144.37;93.00
36258;BME280;22294;52.044;4.582;2023-01-09T14:10:05;75772.91;;;-144.37;93.01
36258;BME280;22294;52.044;4.582;2023-01-09T14:12:42;75772.91;;;-144.37;92.60
36258;BME280;22294;52.044;4.582;2023-01-09T14:15:24;75793.34;;;-144.37;91.66
36258;BME280;22294;52.044;4.582;2023-01-09T14:18:05;75799.47;;;-144.37;92.64
36258;BME280;22294;52.044;4.582;2023-01-09T14:22:59;75828.09;;;-144.37;93.02